Chanhassen, MN

10:30 PM CST on February 10, 2016 (GMT -0600)
AutoMotorplex | | Change Station
CLOSE
Current Station
Personal Weather Station
Location: Chanhassen, MN
Elevation: 912 ft
Nearby Weather Stations

Elev 912 ft 44.85 °N, 93.56 °W | Updated 30 seconds ago

Overcast
Overcast
10.6 °F
Feels Like 11 °F
N
0.0
Wind Variable Wind from NW
Gusts 0.0 mph

Today
High -- | Low -- °F
--% Chance of Precip.
Yesterday
High -- | Low -- °F
Precip. -- in
Pressure 30.30 in
Visibility 10.0 miles
Clouds Overcast 10000 ft
Windchill 11 °F
Dew Point -11 °F
Humidity 37%
Rainfall 0.00 in
Snow Depth Not available.
7:22 AM 5:34 PM
Waxing Crescent, 9% visible
METAR KFCM 110353Z AUTO 34004KT 10SM OVC100 M11/M19 A3024 RMK AO2 SLP261 T11111194
Pressure 30.30 in
Visibility 10.0 miles
Clouds Overcast 10000 ft
Windchill 11 °F
Dew Point -11 °F
Humidity 37%
Rainfall 0.00 in
Snow Depth Not available.
7:22 AM 5:34 PM
Waxing Crescent, 9% visible
METAR KFCM 110353Z AUTO 34004KT 10SM OVC100 M11/M19 A3024 RMK AO2 SLP261 T11111194

10-Day Weather Forecast

Almanac

Astronomy

Feb. 10, 2016 Rise Set
Actual Time
Civil Twilight
Nautical Twilight
Astronomical Twilight
Moon
Length of Visible Light
Length of Day
Tomorrow will be .
, % of the Moon is Illuminated

Today's Extremes

State Highs State Lows

Community

WunderPhotos

Upload Photos

1,892,012 photos uploaded!

WunderBlog® & News

Nearby

Air Quality

  Air Quality AQ Index Pollutant
Not available.

Snow Depth

Station Depth Elevation

Earthquake Activity

City Distance Mag. Time & Date
Minimum magnitude displayed is 2.5.

Coastal Water Temperatures

Place Temperature

Stations

Nearby Weather Stations

Station Location Temp. Windchill Dew Point Humidity Wind Precip. Elev Updated Type
                   

Watches & Warnings

There are currently no watches in effect.